Statengracht — PHAQ — position and weather

sailwx.info

Track history (hours):
 
Tides and Currents Weather Stations Pressure Air Temp Water Temp Dewpoint Dewpoint Depression Visibility Wind Speed Wind Dir Waves Ship Positions

Statengracht

Last reported at 2019-May-24 00:30 UTC. Time now 2019-May-24 00:50 UTC.
Position N 39°25' W 075°31'.

Length 173 m; beam 25 m.

Type: Cargo ship. MMSI: 244584000.

Date/timePositionNaut miles runAvg speedWind from/ knotsBaromVisibWave heightAir tempDewpointWater temp
2019-May-24 00:30N 39°25' W 075°31'510.5
2019-May-24 00:00N 39°21' W 075°26'510.7
2019-May-23 23:30N 39°17' W 075°22'611.5
2019-May-23 23:00N 39°13' W 075°17'510.9
2019-May-23 22:30N 39°08' W 075°14'611.1
2019-May-23 22:00N 39°03' W 075°10'611.5
2019-May-23 21:27N 38°57' W 075°07'37 9.5
2019-May-23 17:31N 38°52' W 074°19'011.2
2019-May-23 17:30N 38°52' W 074°19'711.5
2019-May-23 16:55N 38°55' W 074°11'511.7
2019-May-23 16:28N 38°56' W 074°05'511.8
2019-May-23 16:00N 38°58' W 073°58'612.1
2019-May-23 15:30N 38°60' W 073°51'612.1
2019-May-23 15:00N 39°02' W 073°43'612.2
2019-May-23 14:30N 39°04' W 073°36'612.3
2019-May-23 13:59N 39°06' W 073°28'612.1
2019-May-23 13:28N 39°08' W 073°20'2114.1
2019-May-23 12:00N 39°12' W 072°54'5 9.0 180 / 71024.810.8 18.1 9.314.1
2019-May-23 11:26N 39°16' W 072°50'17715.4
2019-May-23 00:00N 40°12' W 069°12'8013.4 340 / 61024.310.8 12.4 4.1 7.1
2019-May-22 18:00N 40°54' W 067°42'32013.4 340 / 251020.6 5.4 14.2 3.8
2019-May-21 18:00N 44°12' W 062°00'33312.1 200 / 10996.2 7.4 5.6
2019-May-20 14:32N 49°10' W 058°23'112.0
2019-May-20 14:28N 49°10' W 058°22'3 7.0
2019-May-20 14:01N 49°08' W 058°18'4 7.9
2019-May-20 13:27N 49°05' W 058°13'410.0
2019-May-20 13:00N 49°02' W 058°08'4 7.9
2019-May-20 12:31N 48°59' W 058°04'3 6.4
2019-May-20 12:01N 48°58' W 057°59'2 3.4
2019-May-20 11:30N 48°57' W 057°57'0 0.0
2019-May-20 11:00N 48°57' W 057°57'0 0.0
2019-May-20 10:30N 48°57' W 057°57'0 0.0
2019-May-20 09:58N 48°57' W 057°57'0 0.0
2019-May-20 09:28N 48°57' W 057°57'0 0.0
2019-May-20 08:58N 48°57' W 057°57'0 0.0
2019-May-20 08:28N 48°57' W 057°57'0 0.0
2019-May-20 07:58N 48°57' W 057°57'0 0.0
2019-May-20 07:28N 48°57' W 057°57'0 0.0
2019-May-20 06:58N 48°57' W 057°57'0 0.0
2019-May-20 06:28N 48°57' W 057°57'0 0.0
2019-May-20 05:58N 48°57' W 057°57'0 0.0
2019-May-20 05:28N 48°57' W 057°57'0 0.0
2019-May-20 04:58N 48°57' W 057°57'0 0.0
2019-May-20 04:28N 48°57' W 057°57'0 0.0
2019-May-20 03:58N 48°57' W 057°57'0 0.0
2019-May-20 03:28N 48°57' W 057°57'0 0.0
2019-May-20 02:58N 48°57' W 057°57'0 0.0
2019-May-20 02:28N 48°57' W 057°57'0 0.0
2019-May-20 01:58N 48°57' W 057°57'0 0.0
2019-May-20 01:28N 48°57' W 057°57'0 0.0
2019-May-20 00:58N 48°57' W 057°57'0 0.0
2019-May-20 00:28N 48°57' W 057°57'0 0.0
2019-May-19 23:58N 48°57' W 057°57'0 0.0
2019-May-19 23:28N 48°57' W 057°57'0 0.0
2019-May-19 22:58N 48°57' W 057°57'0 0.0
2019-May-19 22:28N 48°57' W 057°57'0 0.0
2019-May-19 21:58N 48°57' W 057°57'0 0.0
2019-May-19 21:28N 48°57' W 057°57'0 0.0
2019-May-19 20:58N 48°57' W 057°57'0 0.0
2019-May-19 20:28N 48°57' W 057°57'0 0.0
2019-May-19 19:58N 48°57' W 057°57'0 0.0
2019-May-19 19:28N 48°57' W 057°57'0 0.0
2019-May-19 18:58N 48°57' W 057°57'0 0.0
2019-May-19 18:28N 48°57' W 057°57'0 0.0
2019-May-19 17:58N 48°57' W 057°57'0 0.0
2019-May-19 17:28N 48°57' W 057°57'0 0.0
2019-May-19 16:58N 48°57' W 057°57'0 0.0
2019-May-19 16:28N 48°57' W 057°57'0 0.0
2019-May-19 15:58N 48°57' W 057°57'0 0.0
2019-May-19 15:28N 48°57' W 057°57'0 0.0
2019-May-19 14:58N 48°57' W 057°57'0 0.0
2019-May-19 14:28N 48°57' W 057°57'0 0.0
2019-May-19 13:58N 48°57' W 057°57'0 0.0
2019-May-19 13:28N 48°57' W 057°57'0 0.0
2019-May-19 12:58N 48°57' W 057°57'0 0.0
2019-May-19 12:28N 48°57' W 057°57'0 0.0
2019-May-19 11:58N 48°57' W 057°57'0 0.0
2019-May-19 11:28N 48°57' W 057°57'0 0.0
2019-May-19 10:58N 48°57' W 057°57'0 0.0
2019-May-19 10:28N 48°57' W 057°57'0 0.0
2019-May-19 09:58N 48°57' W 057°57'0 0.0
2019-May-19 09:28N 48°57' W 057°57'0 0.0
2019-May-19 08:58N 48°57' W 057°57'0 0.0
2019-May-19 08:28N 48°57' W 057°57'0 0.0
2019-May-19 07:58N 48°57' W 057°57'0 0.0
2019-May-19 07:28N 48°57' W 057°57'0 0.0
2019-May-19 06:58N 48°57' W 057°57'0 0.0
2019-May-19 06:28N 48°57' W 057°57'0 0.0
2019-May-19 05:58N 48°57' W 057°57'0 0.0
2019-May-19 05:28N 48°57' W 057°57'0 0.0
2019-May-19 04:58N 48°57' W 057°57'0 0.0
2019-May-19 04:25N 48°57' W 057°57'0 0.0
2019-May-19 04:01N 48°57' W 057°57'0 0.0
2019-May-19 03:31N 48°57' W 057°57'0 0.0
2019-May-19 03:01N 48°57' W 057°57'0 0.0
2019-May-19 02:30N 48°57' W 057°57'0 0.0
2019-May-19 02:00N 48°57' W 057°57'0 0.0
2019-May-19 01:30N 48°57' W 057°57'0 0.0
2019-May-19 01:00N 48°57' W 057°57'0 0.0
2019-May-19 00:30N 48°57' W 057°57'0 0.0
2019-May-19 00:00N 48°57' W 057°57'0 0.0
2019-May-18 23:30N 48°57' W 057°57'0 0.0
2019-May-18 23:00N 48°57' W 057°57'0 0.0
2019-May-18 22:30N 48°57' W 057°57'0 0.0
2019-May-18 21:57N 48°57' W 057°57'0 0.0
2019-May-18 21:30N 48°57' W 057°57'0 0.0
2019-May-18 21:00N 48°57' W 057°57'0 0.0
2019-May-18 20:30N 48°57' W 057°57'0 0.0
2019-May-18 20:00N 48°57' W 057°57'0 0.0
2019-May-18 19:30N 48°57' W 057°57'0 0.0
2019-May-18 19:00N 48°57' W 057°57'0 0.0
2019-May-18 18:30N 48°57' W 057°57'0 0.0
2019-May-18 17:57N 48°57' W 057°57'0 0.0
2019-May-18 17:30N 48°57' W 057°57'0 0.0
2019-May-18 17:00N 48°57' W 057°57'0 0.0
2019-May-18 16:30N 48°57' W 057°57'0 0.0
2019-May-18 16:00N 48°57' W 057°57'0 0.0
2019-May-18 15:30N 48°57' W 057°57'0 0.0
2019-May-18 15:00N 48°57' W 057°57'0 0.0
2019-May-18 14:30N 48°57' W 057°57'0 0.0
2019-May-18 14:00N 48°57' W 057°57'0 0.0
2019-May-18 13:30N 48°57' W 057°57'0 0.0
2019-May-18 13:00N 48°57' W 057°57'0 0.0
2019-May-18 12:30N 48°57' W 057°57'0 0.0
2019-May-18 12:00N 48°57' W 057°57'0 0.0
2019-May-18 11:30N 48°57' W 057°57'0 0.0
2019-May-18 11:00N 48°57' W 057°57'0 0.0
2019-May-18 10:30N 48°57' W 057°57'0 0.0
2019-May-18 10:00N 48°57' W 057°57'0 0.0
2019-May-18 09:30N 48°57' W 057°57'0 0.0
2019-May-18 09:00N 48°57' W 057°57'0 0.0
2019-May-18 08:30N 48°57' W 057°57'0 0.0
2019-May-18 08:00N 48°57' W 057°57'0 0.0
2019-May-18 07:30N 48°57' W 057°57'0 0.0
2019-May-18 06:54N 48°57' W 057°57'0 0.0
2019-May-18 06:30N 48°57' W 057°57'0 0.0
2019-May-18 06:00N 48°57' W 057°57'0 0.0
2019-May-18 05:30N 48°57' W 057°57'0 0.0
2019-May-18 05:00N 48°57' W 057°57'0 0.0
2019-May-18 04:30N 48°57' W 057°57'0 0.0
2019-May-18 04:00N 48°57' W 057°57'0 0.0
2019-May-18 03:30N 48°57' W 057°57'0 0.0
2019-May-18 03:00N 48°57' W 057°57'0 0.0
2019-May-18 02:30N 48°57' W 057°57'0 0.0
2019-May-18 02:00N 48°57' W 057°57'0 0.0
2019-May-18 01:30N 48°57' W 057°57'0 0.0
2019-May-18 01:00N 48°57' W 057°57'0 0.0
2019-May-18 00:30N 48°57' W 057°57'0 0.0
2019-May-18 00:00N 48°57' W 057°57'0 0.0
2019-May-17 23:30N 48°57' W 057°57'0 0.0
2019-May-17 23:00N 48°57' W 057°57'0 0.0
2019-May-17 22:30N 48°57' W 057°57'0 0.0
2019-May-17 21:57N 48°57' W 057°57'0 0.0
2019-May-17 21:24N 48°57' W 057°57'0 0.0
2019-May-17 20:51N 48°57' W 057°57'0 0.0
2019-May-17 20:24N 48°57' W 057°57'0 0.0
2019-May-17 20:00N 48°57' W 057°57'0 0.0
2019-May-17 19:30N 48°57' W 057°57'0 0.0
2019-May-17 18:59N 48°57' W 057°57'0 0.0
2019-May-17 18:23N 48°57' W 057°57'0 0.0
2019-May-17 17:59N 48°57' W 057°57'0 0.0
2019-May-17 17:29N 48°57' W 057°57'0 0.0
2019-May-17 16:59N 48°57' W 057°57'0 0.0
2019-May-17 16:29N 48°57' W 057°57'0 0.0
2019-May-17 15:59N 48°57' W 057°57'0 0.0
2019-May-17 15:29N 48°57' W 057°57'0 0.0
2019-May-17 14:59N 48°57' W 057°57'0 0.0
2019-May-17 14:29N 48°57' W 057°57'0 0.0
2019-May-17 13:59N 48°57' W 057°57'0 0.0
2019-May-17 13:23N 48°57' W 057°57'0 0.0
2019-May-17 12:59N 48°57' W 057°57'0 0.0
2019-May-17 12:29N 48°57' W 057°57'0 0.0
2019-May-17 11:59N 48°57' W 057°57'0 0.0
2019-May-17 11:29N 48°57' W 057°57'0 0.0
2019-May-17 10:59N 48°57' W 057°57'0 0.0
2019-May-17 10:29N 48°57' W 057°57'0 0.0
2019-May-17 09:59N 48°57' W 057°57'0 0.0
2019-May-17 09:29N 48°57' W 057°57'0 0.0
2019-May-17 08:59N 48°57' W 057°57'0 0.0
2019-May-17 08:29N 48°57' W 057°57'0 0.0
2019-May-17 07:59N 48°57' W 057°57'0 0.0
2019-May-17 07:29N 48°57' W 057°57'0 0.0
2019-May-17 06:59N 48°57' W 057°57'0 0.0
2019-May-17 06:29N 48°57' W 057°57'0 0.0
2019-May-17 05:53N 48°57' W 057°57'0 0.0
2019-May-17 05:29N 48°57' W 057°57'0 0.0
2019-May-17 04:59N 48°57' W 057°57'0 0.0
2019-May-17 04:29N 48°57' W 057°57'0 0.0
2019-May-17 03:59N 48°57' W 057°57'0 0.0
2019-May-17 03:29N 48°57' W 057°57'0 0.0
2019-May-17 02:59N 48°57' W 057°57'0 0.0
2019-May-17 02:29N 48°57' W 057°57'0 0.0
2019-May-17 01:59N 48°57' W 057°57'0 0.0
2019-May-17 01:29N 48°57' W 057°57'0 0.0
2019-May-17 00:59N 48°57' W 057°57'0 0.0
2019-May-17 00:29N 48°57' W 057°57'0 0.0
2019-May-16 23:59N 48°57' W 057°57'0 0.0
2019-May-16 23:29N 48°57' W 057°57'0 0.0
2019-May-16 22:59N 48°57' W 057°57'0 0.0
2019-May-16 22:29N 48°57' W 057°57'0 0.0
2019-May-16 21:59N 48°57' W 057°57'0 0.0
2019-May-16 21:29N 48°57' W 057°57'0 0.0
2019-May-16 20:59N 48°57' W 057°57'0 0.0
2019-May-16 20:29N 48°57' W 057°57'0 0.0
2019-May-16 19:59N 48°57' W 057°57'0 0.0
2019-May-16 19:29N 48°57' W 057°57'0 0.0
2019-May-16 18:59N 48°57' W 057°57'0 0.0
2019-May-16 18:29N 48°57' W 057°57'0 0.0
2019-May-16 17:59N 48°57' W 057°57'0 0.0
2019-May-16 17:29N 48°57' W 057°57'0 0.0
2019-May-16 16:59N 48°57' W 057°57'0 0.0
2019-May-16 16:29N 48°57' W 057°57'0 0.0
2019-May-16 15:59N 48°57' W 057°57'0 0.0
2019-May-16 15:29N 48°57' W 057°57'0 0.0
2019-May-16 14:59N 48°57' W 057°57'0 0.0
2019-May-16 14:29N 48°57' W 057°57'0 0.0
2019-May-16 13:59N 48°57' W 057°57'0 0.0
2019-May-16 13:29N 48°57' W 057°57'0 0.0
2019-May-16 12:59N 48°57' W 057°57'0 0.0
2019-May-16 12:29N 48°57' W 057°57'0 0.0
2019-May-16 11:58N 48°57' W 057°57'0 0.0
2019-May-16 11:28N 48°57' W 057°57'0 0.0
2019-May-16 10:58N 48°57' W 057°57'0 0.0
2019-May-16 10:28N 48°57' W 057°57'0 0.0
2019-May-16 09:58N 48°57' W 057°57'0 0.0
2019-May-16 09:28N 48°57' W 057°57'0 0.0
2019-May-16 08:58N 48°57' W 057°57'0 0.0
2019-May-16 08:28N 48°57' W 057°57'0 0.0
2019-May-16 07:58N 48°57' W 057°57'0 0.0
2019-May-16 07:28N 48°57' W 057°57'0 0.0
2019-May-16 06:58N 48°57' W 057°57'0 0.0
2019-May-16 06:28N 48°57' W 057°57'0 0.0
2019-May-16 05:58N 48°57' W 057°57'0 0.0
2019-May-16 05:28N 48°57' W 057°57'0 0.0
2019-May-16 04:58N 48°57' W 057°57'0 0.0
2019-May-16 04:28N 48°57' W 057°57'0 0.0
2019-May-16 03:58N 48°57' W 057°57'0 0.0
2019-May-16 03:28N 48°57' W 057°57'0 0.0
2019-May-16 02:58N 48°57' W 057°57'0 0.0
2019-May-16 02:28N 48°57' W 057°57'0 0.0
2019-May-16 01:58N 48°57' W 057°57'0 0.0
2019-May-16 01:28N 48°57' W 057°57'0 0.0
2019-May-16 00:58N 48°57' W 057°57'0 0.0
2019-May-16 00:28N 48°57' W 057°57'0 0.0
2019-May-15 23:58N 48°57' W 057°57'0 0.0
2019-May-15 23:28N 48°57' W 057°57'0 0.0
2019-May-15 22:58N 48°57' W 057°57'0 0.0
2019-May-15 22:28N 48°57' W 057°57'0 0.0
2019-May-15 21:58N 48°57' W 057°57'0 0.0
2019-May-15 21:28N 48°57' W 057°57'0 0.0
2019-May-15 20:58N 48°57' W 057°57'0 0.0
2019-May-15 20:28N 48°57' W 057°57'0 0.0
2019-May-15 19:58N 48°57' W 057°57'0 0.0
2019-May-15 19:28N 48°57' W 057°57'0 0.0
2019-May-15 18:46N 48°57' W 057°57'0 0.0
2019-May-15 18:28N 48°57' W 057°57'0 0.0
2019-May-15 17:58N 48°57' W 057°57'0 0.0
2019-May-15 17:28N 48°57' W 057°57'0 0.0
2019-May-15 16:58N 48°57' W 057°57'0 0.0
2019-May-15 16:28N 48°57' W 057°57'0 0.0
2019-May-15 15:58N 48°57' W 057°57'0 0.0
2019-May-15 15:28N 48°57' W 057°57'0 0.0
2019-May-15 14:58N 48°57' W 057°57'0 0.0
2019-May-15 14:28N 48°57' W 057°57'0 0.0
2019-May-15 13:58N 48°57' W 057°57'0 0.0
2019-May-15 13:28N 48°57' W 057°57'0 0.0
2019-May-15 12:58N 48°57' W 057°57'0 0.0
2019-May-15 12:28N 48°57' W 057°57'0 0.0
2019-May-15 11:58N 48°57' W 057°57'0 0.0
2019-May-15 11:28N 48°57' W 057°57'0 0.0
2019-May-15 10:58N 48°57' W 057°57'0 0.0
2019-May-15 10:28N 48°57' W 057°57'0 0.0
2019-May-15 09:58N 48°57' W 057°57'0 0.0
2019-May-15 09:28N 48°57' W 057°57'0 0.0
2019-May-15 08:58N 48°57' W 057°57'0 0.0
2019-May-15 08:28N 48°57' W 057°57'0 0.0
2019-May-15 07:58N 48°57' W 057°57'0 0.0
2019-May-15 07:28N 48°57' W 057°57'0 0.0
2019-May-15 06:58N 48°57' W 057°57'0 0.0
2019-May-15 06:28N 48°57' W 057°57'0 0.0
2019-May-15 06:01N 48°57' W 057°57'0 0.0
2019-May-15 05:31N 48°57' W 057°57'0 0.0
2019-May-15 05:01N 48°57' W 057°57'0 0.0
2019-May-15 04:30N 48°57' W 057°57'0 0.0
2019-May-15 03:57N 48°57' W 057°57'0 0.0
2019-May-15 03:30N 48°57' W 057°57'0 0.0
2019-May-15 03:00N 48°57' W 057°57'0 0.0
2019-May-15 02:30N 48°57' W 057°57'0 0.0
2019-May-15 02:00N 48°57' W 057°57'0 0.0
2019-May-15 01:27N 48°57' W 057°57'0 0.0
2019-May-15 00:57N 48°57' W 057°57'0 0.0
2019-May-15 00:30N 48°57' W 057°57'0 0.0
2019-May-15 00:00N 48°57' W 057°57'0 0.0
2019-May-14 23:30N 48°57' W 057°57'0 0.0
2019-May-14 23:00N 48°57' W 057°57'0 0.0
2019-May-14 22:30N 48°57' W 057°57'0 0.0
2019-May-14 22:00N 48°57' W 057°57'0 0.0
2019-May-14 21:27N 48°57' W 057°57'0 0.0
2019-May-14 20:57N 48°57' W 057°57'0 0.0
2019-May-14 20:30N 48°57' W 057°57'0 0.0
2019-May-14 19:57N 48°57' W 057°57'0 0.0
2019-May-14 19:30N 48°57' W 057°57'0 0.0
2019-May-14 19:00N 48°57' W 057°57'0 0.0
2019-May-14 18:30N 48°57' W 057°57'0 0.0
2019-May-14 17:57N 48°57' W 057°57'0 0.0
2019-May-14 17:30N 48°57' W 057°57'0 0.0
2019-May-14 17:00N 48°57' W 057°57'0 0.0
2019-May-14 16:27N 48°57' W 057°57'0 0.0
2019-May-14 15:57N 48°57' W 057°57'0 0.0
2019-May-14 15:30N 48°57' W 057°57'0 0.0
2019-May-14 15:00N 48°57' W 057°57'0 0.0
2019-May-14 14:30N 48°57' W 057°57'0 0.0
2019-May-14 14:00N 48°57' W 057°57'0 0.0
2019-May-14 13:30N 48°57' W 057°57'0 0.0
2019-May-14 13:00N 48°57' W 057°57'0 0.0
2019-May-14 12:30N 48°57' W 057°57'0 0.0
2019-May-14 12:00N 48°57' W 057°57'0 0.0
2019-May-14 11:30N 48°57' W 057°57'0 0.0
2019-May-14 11:00N 48°57' W 057°57'0 0.0
2019-May-14 10:30N 48°57' W 057°57'0 0.0
2019-May-14 10:00N 48°57' W 057°57'0 0.0
2019-May-14 09:30N 48°57' W 057°57'0 0.0
2019-May-14 09:00N 48°57' W 057°57'0 0.0
2019-May-14 08:30N 48°57' W 057°57'0 0.0
2019-May-14 07:57N 48°57' W 057°57'0 0.0
2019-May-14 07:27N 48°57' W 057°57'0 0.0
2019-May-14 06:57N 48°57' W 057°57'0 0.0
2019-May-14 06:27N 48°57' W 057°57'0 0.0
2019-May-14 05:57N 48°57' W 057°57'0 0.0
2019-May-14 05:27N 48°57' W 057°57'0 0.0
2019-May-14 04:57N 48°57' W 057°57'0 0.0
2019-May-14 04:27N 48°57' W 057°57'0 0.0
2019-May-14 03:57N 48°57' W 057°57'0 0.0
2019-May-14 03:27N 48°57' W 057°57'0 0.0
2019-May-14 02:57N 48°57' W 057°57'0 0.0
2019-May-14 02:27N 48°57' W 057°57'0 0.0
2019-May-14 01:57N 48°57' W 057°57'0 0.0
2019-May-14 01:27N 48°57' W 057°57'0 0.0
2019-May-14 00:57N 48°57' W 057°57'  
Track history (hours):
 
Tides and Currents Weather Stations Pressure Air Temp Water Temp Dewpoint Dewpoint Depression Visibility Wind Speed Wind Dir Waves Ship Positions

Statengracht

Last reported at 2019-May-24 00:30 UTC. Time now 2019-May-24 00:50 UTC.
Position N 39°25' W 075°31'.

Length 173 m; beam 25 m.

Type: Cargo ship. MMSI: 244584000.

Date/timePositionNaut miles runAvg speedWind from/ knotsBaromVisibWave heightAir tempDewpointWater temp
2019-May-24 00:30N 39°25' W 075°31'510.5
2019-May-24 00:00N 39°21' W 075°26'510.7
2019-May-23 23:30N 39°17' W 075°22'611.5
2019-May-23 23:00N 39°13' W 075°17'510.9
2019-May-23 22:30N 39°08' W 075°14'611.1
2019-May-23 22:00N 39°03' W 075°10'611.5
2019-May-23 21:27N 38°57' W 075°07'37 9.5
2019-May-23 17:31N 38°52' W 074°19'011.2
2019-May-23 17:30N 38°52' W 074°19'711.5
2019-May-23 16:55N 38°55' W 074°11'511.7
2019-May-23 16:28N 38°56' W 074°05'511.8
2019-May-23 16:00N 38°58' W 073°58'612.1
2019-May-23 15:30N 38°60' W 073°51'612.1
2019-May-23 15:00N 39°02' W 073°43'612.2
2019-May-23 14:30N 39°04' W 073°36'612.3
2019-May-23 13:59N 39°06' W 073°28'612.1
2019-May-23 13:28N 39°08' W 073°20'2114.1
2019-May-23 12:00N 39°12' W 072°54'5 9.0 180 / 71024.810.8 18.1 9.314.1
2019-May-23 11:26N 39°16' W 072°50'17715.4
2019-May-23 00:00N 40°12' W 069°12'8013.4 340 / 61024.310.8 12.4 4.1 7.1
2019-May-22 18:00N 40°54' W 067°42'32013.4 340 / 251020.6 5.4 14.2 3.8
2019-May-21 18:00N 44°12' W 062°00'33312.1 200 / 10996.2 7.4 5.6
2019-May-20 14:32N 49°10' W 058°23'112.0
2019-May-20 14:28N 49°10' W 058°22'3 7.0
2019-May-20 14:01N 49°08' W 058°18'4 7.9
2019-May-20 13:27N 49°05' W 058°13'410.0
2019-May-20 13:00N 49°02' W 058°08'4 7.9
2019-May-20 12:31N 48°59' W 058°04'3 6.4
2019-May-20 12:01N 48°58' W 057°59'2 3.4
2019-May-20 11:30N 48°57' W 057°57'0 0.0
2019-May-20 11:00N 48°57' W 057°57'0 0.0
2019-May-20 10:30N 48°57' W 057°57'0 0.0
2019-May-20 09:58N 48°57' W 057°57'0 0.0
2019-May-20 09:28N 48°57' W 057°57'0 0.0
2019-May-20 08:58N 48°57' W 057°57'0 0.0
2019-May-20 08:28N 48°57' W 057°57'0 0.0
2019-May-20 07:58N 48°57' W 057°57'0 0.0
2019-May-20 07:28N 48°57' W 057°57'0 0.0
2019-May-20 06:58N 48°57' W 057°57'0 0.0
2019-May-20 06:28N 48°57' W 057°57'0 0.0
2019-May-20 05:58N 48°57' W 057°57'0 0.0
2019-May-20 05:28N 48°57' W 057°57'0 0.0
2019-May-20 04:58N 48°57' W 057°57'0 0.0
2019-May-20 04:28N 48°57' W 057°57'0 0.0
2019-May-20 03:58N 48°57' W 057°57'0 0.0
2019-May-20 03:28N 48°57' W 057°57'0 0.0
2019-May-20 02:58N 48°57' W 057°57'0 0.0
2019-May-20 02:28N 48°57' W 057°57'0 0.0
2019-May-20 01:58N 48°57' W 057°57'0 0.0
2019-May-20 01:28N 48°57' W 057°57'0 0.0
2019-May-20 00:58N 48°57' W 057°57'0 0.0
2019-May-20 00:28N 48°57' W 057°57'0 0.0
2019-May-19 23:58N 48°57' W 057°57'0 0.0
2019-May-19 23:28N 48°57' W 057°57'0 0.0
2019-May-19 22:58N 48°57' W 057°57'0 0.0
2019-May-19 22:28N 48°57' W 057°57'0 0.0
2019-May-19 21:58N 48°57' W 057°57'0 0.0
2019-May-19 21:28N 48°57' W 057°57'0 0.0
2019-May-19 20:58N 48°57' W 057°57'0 0.0
2019-May-19 20:28N 48°57' W 057°57'0 0.0
2019-May-19 19:58N 48°57' W 057°57'0 0.0
2019-May-19 19:28N 48°57' W 057°57'0 0.0
2019-May-19 18:58N 48°57' W 057°57'0 0.0
2019-May-19 18:28N 48°57' W 057°57'0 0.0
2019-May-19 17:58N 48°57' W 057°57'0 0.0
2019-May-19 17:28N 48°57' W 057°57'0 0.0
2019-May-19 16:58N 48°57' W 057°57'0 0.0
2019-May-19 16:28N 48°57' W 057°57'0 0.0
2019-May-19 15:58N 48°57' W 057°57'0 0.0
2019-May-19 15:28N 48°57' W 057°57'0 0.0
2019-May-19 14:58N 48°57' W 057°57'0 0.0
2019-May-19 14:28N 48°57' W 057°57'0 0.0
2019-May-19 13:58N 48°57' W 057°57'0 0.0
2019-May-19 13:28N 48°57' W 057°57'0 0.0
2019-May-19 12:58N 48°57' W 057°57'0 0.0
2019-May-19 12:28N 48°57' W 057°57'0 0.0
2019-May-19 11:58N 48°57' W 057°57'0 0.0
2019-May-19 11:28N 48°57' W 057°57'0 0.0
2019-May-19 10:58N 48°57' W 057°57'0 0.0
2019-May-19 10:28N 48°57' W 057°57'0 0.0
2019-May-19 09:58N 48°57' W 057°57'0 0.0
2019-May-19 09:28N 48°57' W 057°57'0 0.0
2019-May-19 08:58N 48°57' W 057°57'0 0.0
2019-May-19 08:28N 48°57' W 057°57'0 0.0
2019-May-19 07:58N 48°57' W 057°57'0 0.0
2019-May-19 07:28N 48°57' W 057°57'0 0.0
2019-May-19 06:58N 48°57' W 057°57'0 0.0
2019-May-19 06:28N 48°57' W 057°57'0 0.0
2019-May-19 05:58N 48°57' W 057°57'0 0.0
2019-May-19 05:28N 48°57' W 057°57'0 0.0
2019-May-19 04:58N 48°57' W 057°57'0 0.0
2019-May-19 04:25N 48°57' W 057°57'0 0.0
2019-May-19 04:01N 48°57' W 057°57'0 0.0
2019-May-19 03:31N 48°57' W 057°57'0 0.0
2019-May-19 03:01N 48°57' W 057°57'0 0.0
2019-May-19 02:30N 48°57' W 057°57'0 0.0
2019-May-19 02:00N 48°57' W 057°57'0 0.0
2019-May-19 01:30N 48°57' W 057°57'0 0.0
2019-May-19 01:00N 48°57' W 057°57'0 0.0
2019-May-19 00:30N 48°57' W 057°57'0 0.0
2019-May-19 00:00N 48°57' W 057°57'0 0.0
2019-May-18 23:30N 48°57' W 057°57'0 0.0
2019-May-18 23:00N 48°57' W 057°57'0 0.0
2019-May-18 22:30N 48°57' W 057°57'0 0.0
2019-May-18 21:57N 48°57' W 057°57'0 0.0
2019-May-18 21:30N 48°57' W 057°57'0 0.0
2019-May-18 21:00N 48°57' W 057°57'0 0.0
2019-May-18 20:30N 48°57' W 057°57'0 0.0
2019-May-18 20:00N 48°57' W 057°57'0 0.0
2019-May-18 19:30N 48°57' W 057°57'0 0.0
2019-May-18 19:00N 48°57' W 057°57'0 0.0
2019-May-18 18:30N 48°57' W 057°57'0 0.0
2019-May-18 17:57N 48°57' W 057°57'0 0.0
2019-May-18 17:30N 48°57' W 057°57'0 0.0
2019-May-18 17:00N 48°57' W 057°57'0 0.0
2019-May-18 16:30N 48°57' W 057°57'0 0.0
2019-May-18 16:00N 48°57' W 057°57'0 0.0
2019-May-18 15:30N 48°57' W 057°57'0 0.0
2019-May-18 15:00N 48°57' W 057°57'0 0.0
2019-May-18 14:30N 48°57' W 057°57'0 0.0
2019-May-18 14:00N 48°57' W 057°57'0 0.0
2019-May-18 13:30N 48°57' W 057°57'0 0.0
2019-May-18 13:00N 48°57' W 057°57'0 0.0
2019-May-18 12:30N 48°57' W 057°57'0 0.0
2019-May-18 12:00N 48°57' W 057°57'0 0.0
2019-May-18 11:30N 48°57' W 057°57'0 0.0
2019-May-18 11:00N 48°57' W 057°57'0 0.0
2019-May-18 10:30N 48°57' W 057°57'0 0.0
2019-May-18 10:00N 48°57' W 057°57'0 0.0
2019-May-18 09:30N 48°57' W 057°57'0 0.0
2019-May-18 09:00N 48°57' W 057°57'0 0.0
2019-May-18 08:30N 48°57' W 057°57'0 0.0
2019-May-18 08:00N 48°57' W 057°57'0 0.0
2019-May-18 07:30N 48°57' W 057°57'0 0.0
2019-May-18 06:54N 48°57' W 057°57'0 0.0
2019-May-18 06:30N 48°57' W 057°57'0 0.0
2019-May-18 06:00N 48°57' W 057°57'0 0.0
2019-May-18 05:30N 48°57' W 057°57'0 0.0
2019-May-18 05:00N 48°57' W 057°57'0 0.0
2019-May-18 04:30N 48°57' W 057°57'0 0.0
2019-May-18 04:00N 48°57' W 057°57'0 0.0
2019-May-18 03:30N 48°57' W 057°57'0 0.0
2019-May-18 03:00N 48°57' W 057°57'0 0.0
2019-May-18 02:30N 48°57' W 057°57'0 0.0
2019-May-18 02:00N 48°57' W 057°57'0 0.0
2019-May-18 01:30N 48°57' W 057°57'0 0.0
2019-May-18 01:00N 48°57' W 057°57'0 0.0
2019-May-18 00:30N 48°57' W 057°57'0 0.0
2019-May-18 00:00N 48°57' W 057°57'0 0.0
2019-May-17 23:30N 48°57' W 057°57'0 0.0
2019-May-17 23:00N 48°57' W 057°57'0 0.0
2019-May-17 22:30N 48°57' W 057°57'0 0.0
2019-May-17 21:57N 48°57' W 057°57'0 0.0
2019-May-17 21:24N 48°57' W 057°57'0 0.0
2019-May-17 20:51N 48°57' W 057°57'0 0.0
2019-May-17 20:24N 48°57' W 057°57'0 0.0
2019-May-17 20:00N 48°57' W 057°57'0 0.0
2019-May-17 19:30N 48°57' W 057°57'0 0.0
2019-May-17 18:59N 48°57' W 057°57'0 0.0
2019-May-17 18:23N 48°57' W 057°57'0 0.0
2019-May-17 17:59N 48°57' W 057°57'0 0.0
2019-May-17 17:29N 48°57' W 057°57'0 0.0
2019-May-17 16:59N 48°57' W 057°57'0 0.0
2019-May-17 16:29N 48°57' W 057°57'0 0.0
2019-May-17 15:59N 48°57' W 057°57'0 0.0
2019-May-17 15:29N 48°57' W 057°57'0 0.0
2019-May-17 14:59N 48°57' W 057°57'0 0.0
2019-May-17 14:29N 48°57' W 057°57'0 0.0
2019-May-17 13:59N 48°57' W 057°57'0 0.0
2019-May-17 13:23N 48°57' W 057°57'0 0.0
2019-May-17 12:59N 48°57' W 057°57'0 0.0
2019-May-17 12:29N 48°57' W 057°57'0 0.0
2019-May-17 11:59N 48°57' W 057°57'0 0.0
2019-May-17 11:29N 48°57' W 057°57'0 0.0
2019-May-17 10:59N 48°57' W 057°57'0 0.0
2019-May-17 10:29N 48°57' W 057°57'0 0.0
2019-May-17 09:59N 48°57' W 057°57'0 0.0
2019-May-17 09:29N 48°57' W 057°57'0 0.0
2019-May-17 08:59N 48°57' W 057°57'0 0.0
2019-May-17 08:29N 48°57' W 057°57'0 0.0
2019-May-17 07:59N 48°57' W 057°57'0 0.0
2019-May-17 07:29N 48°57' W 057°57'0 0.0
2019-May-17 06:59N 48°57' W 057°57'0 0.0
2019-May-17 06:29N 48°57' W 057°57'0 0.0
2019-May-17 05:53N 48°57' W 057°57'0 0.0
2019-May-17 05:29N 48°57' W 057°57'0 0.0
2019-May-17 04:59N 48°57' W 057°57'0 0.0
2019-May-17 04:29N 48°57' W 057°57'0 0.0
2019-May-17 03:59N 48°57' W 057°57'0 0.0
2019-May-17 03:29N 48°57' W 057°57'0 0.0
2019-May-17 02:59N 48°57' W 057°57'0 0.0
2019-May-17 02:29N 48°57' W 057°57'0 0.0
2019-May-17 01:59N 48°57' W 057°57'0 0.0
2019-May-17 01:29N 48°57' W 057°57'0 0.0
2019-May-17 00:59N 48°57' W 057°57'0 0.0
2019-May-17 00:29N 48°57' W 057°57'0 0.0
2019-May-16 23:59N 48°57' W 057°57'0 0.0
2019-May-16 23:29N 48°57' W 057°57'0 0.0
2019-May-16 22:59N 48°57' W 057°57'0 0.0
2019-May-16 22:29N 48°57' W 057°57'0 0.0
2019-May-16 21:59N 48°57' W 057°57'0 0.0
2019-May-16 21:29N 48°57' W 057°57'0 0.0
2019-May-16 20:59N 48°57' W 057°57'0 0.0
2019-May-16 20:29N 48°57' W 057°57'0 0.0
2019-May-16 19:59N 48°57' W 057°57'0 0.0
2019-May-16 19:29N 48°57' W 057°57'0 0.0
2019-May-16 18:59N 48°57' W 057°57'0 0.0
2019-May-16 18:29N 48°57' W 057°57'0 0.0
2019-May-16 17:59N 48°57' W 057°57'0 0.0
2019-May-16 17:29N 48°57' W 057°57'0 0.0
2019-May-16 16:59N 48°57' W 057°57'0 0.0
2019-May-16 16:29N 48°57' W 057°57'0 0.0
2019-May-16 15:59N 48°57' W 057°57'0 0.0
2019-May-16 15:29N 48°57' W 057°57'0 0.0
2019-May-16 14:59N 48°57' W 057°57'0 0.0
2019-May-16 14:29N 48°57' W 057°57'0 0.0
2019-May-16 13:59N 48°57' W 057°57'0 0.0
2019-May-16 13:29N 48°57' W 057°57'0 0.0
2019-May-16 12:59N 48°57' W 057°57'0 0.0
2019-May-16 12:29N 48°57' W 057°57'0 0.0
2019-May-16 11:58N 48°57' W 057°57'0 0.0
2019-May-16 11:28N 48°57' W 057°57'0 0.0
2019-May-16 10:58N 48°57' W 057°57'0 0.0
2019-May-16 10:28N 48°57' W 057°57'0 0.0
2019-May-16 09:58N 48°57' W 057°57'0 0.0
2019-May-16 09:28N 48°57' W 057°57'0 0.0
2019-May-16 08:58N 48°57' W 057°57'0 0.0
2019-May-16 08:28N 48°57' W 057°57'0 0.0
2019-May-16 07:58N 48°57' W 057°57'0 0.0
2019-May-16 07:28N 48°57' W 057°57'0 0.0
2019-May-16 06:58N 48°57' W 057°57'0 0.0
2019-May-16 06:28N 48°57' W 057°57'0 0.0
2019-May-16 05:58N 48°57' W 057°57'0 0.0
2019-May-16 05:28N 48°57' W 057°57'0 0.0
2019-May-16 04:58N 48°57' W 057°57'0 0.0
2019-May-16 04:28N 48°57' W 057°57'0 0.0
2019-May-16 03:58N 48°57' W 057°57'0 0.0
2019-May-16 03:28N 48°57' W 057°57'0 0.0
2019-May-16 02:58N 48°57' W 057°57'0 0.0
2019-May-16 02:28N 48°57' W 057°57'0 0.0
2019-May-16 01:58N 48°57' W 057°57'0 0.0
2019-May-16 01:28N 48°57' W 057°57'0 0.0
2019-May-16 00:58N 48°57' W 057°57'0 0.0
2019-May-16 00:28N 48°57' W 057°57'0 0.0
2019-May-15 23:58N 48°57' W 057°57'0 0.0
2019-May-15 23:28N 48°57' W 057°57'0 0.0
2019-May-15 22:58N 48°57' W 057°57'0 0.0
2019-May-15 22:28N 48°57' W 057°57'0 0.0
2019-May-15 21:58N 48°57' W 057°57'0 0.0
2019-May-15 21:28N 48°57' W 057°57'0 0.0
2019-May-15 20:58N 48°57' W 057°57'0 0.0
2019-May-15 20:28N 48°57' W 057°57'0 0.0
2019-May-15 19:58N 48°57' W 057°57'0 0.0
2019-May-15 19:28N 48°57' W 057°57'0 0.0
2019-May-15 18:46N 48°57' W 057°57'0 0.0
2019-May-15 18:28N 48°57' W 057°57'0 0.0
2019-May-15 17:58N 48°57' W 057°57'0 0.0
2019-May-15 17:28N 48°57' W 057°57'0 0.0
2019-May-15 16:58N 48°57' W 057°57'0 0.0
2019-May-15 16:28N 48°57' W 057°57'0 0.0
2019-May-15 15:58N 48°57' W 057°57'0 0.0
2019-May-15 15:28N 48°57' W 057°57'0 0.0
2019-May-15 14:58N 48°57' W 057°57'0 0.0
2019-May-15 14:28N 48°57' W 057°57'0 0.0
2019-May-15 13:58N 48°57' W 057°57'0 0.0
2019-May-15 13:28N 48°57' W 057°57'0 0.0
2019-May-15 12:58N 48°57' W 057°57'0 0.0
2019-May-15 12:28N 48°57' W 057°57'0 0.0
2019-May-15 11:58N 48°57' W 057°57'0 0.0
2019-May-15 11:28N 48°57' W 057°57'0 0.0
2019-May-15 10:58N 48°57' W 057°57'0 0.0
2019-May-15 10:28N 48°57' W 057°57'0 0.0
2019-May-15 09:58N 48°57' W 057°57'0 0.0
2019-May-15 09:28N 48°57' W 057°57'0 0.0
2019-May-15 08:58N 48°57' W 057°57'0 0.0
2019-May-15 08:28N 48°57' W 057°57'0 0.0
2019-May-15 07:58N 48°57' W 057°57'0 0.0
2019-May-15 07:28N 48°57' W 057°57'0 0.0
2019-May-15 06:58N 48°57' W 057°57'0 0.0
2019-May-15 06:28N 48°57' W 057°57'0 0.0
2019-May-15 06:01N 48°57' W 057°57'0 0.0
2019-May-15 05:31N 48°57' W 057°57'0 0.0
2019-May-15 05:01N 48°57' W 057°57'0 0.0
2019-May-15 04:30N 48°57' W 057°57'0 0.0
2019-May-15 03:57N 48°57' W 057°57'0 0.0
2019-May-15 03:30N 48°57' W 057°57'0 0.0
2019-May-15 03:00N 48°57' W 057°57'0 0.0
2019-May-15 02:30N 48°57' W 057°57'0 0.0
2019-May-15 02:00N 48°57' W 057°57'0 0.0
2019-May-15 01:27N 48°57' W 057°57'0 0.0
2019-May-15 00:57N 48°57' W 057°57'0 0.0
2019-May-15 00:30N 48°57' W 057°57'0 0.0
2019-May-15 00:00N 48°57' W 057°57'0 0.0
2019-May-14 23:30N 48°57' W 057°57'0 0.0
2019-May-14 23:00N 48°57' W 057°57'0 0.0
2019-May-14 22:30N 48°57' W 057°57'0 0.0
2019-May-14 22:00N 48°57' W 057°57'0 0.0
2019-May-14 21:27N 48°57' W 057°57'0 0.0
2019-May-14 20:57N 48°57' W 057°57'0 0.0
2019-May-14 20:30N 48°57' W 057°57'0 0.0
2019-May-14 19:57N 48°57' W 057°57'0 0.0
2019-May-14 19:30N 48°57' W 057°57'0 0.0
2019-May-14 19:00N 48°57' W 057°57'0 0.0
2019-May-14 18:30N 48°57' W 057°57'0 0.0
2019-May-14 17:57N 48°57' W 057°57'0 0.0
2019-May-14 17:30N 48°57' W 057°57'0 0.0
2019-May-14 17:00N 48°57' W 057°57'0 0.0
2019-May-14 16:27N 48°57' W 057°57'0 0.0
2019-May-14 15:57N 48°57' W 057°57'0 0.0
2019-May-14 15:30N 48°57' W 057°57'0 0.0
2019-May-14 15:00N 48°57' W 057°57'0 0.0
2019-May-14 14:30N 48°57' W 057°57'0 0.0
2019-May-14 14:00N 48°57' W 057°57'0 0.0
2019-May-14 13:30N 48°57' W 057°57'0 0.0
2019-May-14 13:00N 48°57' W 057°57'0 0.0
2019-May-14 12:30N 48°57' W 057°57'0 0.0
2019-May-14 12:00N 48°57' W 057°57'0 0.0
2019-May-14 11:30N 48°57' W 057°57'0 0.0
2019-May-14 11:00N 48°57' W 057°57'0 0.0
2019-May-14 10:30N 48°57' W 057°57'0 0.0
2019-May-14 10:00N 48°57' W 057°57'0 0.0
2019-May-14 09:30N 48°57' W 057°57'0 0.0
2019-May-14 09:00N 48°57' W 057°57'0 0.0
2019-May-14 08:30N 48°57' W 057°57'0 0.0
2019-May-14 07:57N 48°57' W 057°57'0 0.0
2019-May-14 07:27N 48°57' W 057°57'0 0.0
2019-May-14 06:57N 48°57' W 057°57'0 0.0
2019-May-14 06:27N 48°57' W 057°57'0 0.0
2019-May-14 05:57N 48°57' W 057°57'0 0.0
2019-May-14 05:27N 48°57' W 057°57'0 0.0
2019-May-14 04:57N 48°57' W 057°57'0 0.0
2019-May-14 04:27N 48°57' W 057°57'0 0.0
2019-May-14 03:57N 48°57' W 057°57'0 0.0
2019-May-14 03:27N 48°57' W 057°57'0 0.0
2019-May-14 02:57N 48°57' W 057°57'0 0.0
2019-May-14 02:27N 48°57' W 057°57'0 0.0
2019-May-14 01:57N 48°57' W 057°57'0 0.0
2019-May-14 01:27N 48°57' W 057°57'0 0.0
2019-May-14 00:57N 48°57' W 057°57'  

Dump ship's entire track history